createdAt,value
2017-11-27T00:00:52.132Z,0.00
2017-11-27T00:01:52.037Z,0.00
2017-11-27T00:02:52.032Z,0.00
2017-11-27T00:03:51.979Z,0.00
2017-11-27T00:04:51.926Z,0.00
2017-11-27T00:05:51.858Z,0.00
2017-11-27T00:06:51.821Z,0.00
2017-11-27T00:07:51.767Z,0.00
2017-11-27T00:08:51.721Z,0.00
2017-11-27T00:09:51.681Z,0.00
2017-11-27T00:10:51.639Z,0.00
2017-11-27T00:11:51.591Z,0.00
2017-11-27T00:12:51.530Z,0.00
2017-11-27T00:13:51.511Z,0.00
2017-11-27T00:14:51.437Z,0.00
2017-11-27T00:15:51.421Z,0.00
2017-11-27T00:16:51.347Z,0.00
2017-11-27T00:17:51.307Z,0.00
2017-11-27T00:18:51.258Z,0.00
2017-11-27T00:19:51.226Z,0.00
2017-11-27T00:20:51.164Z,0.00
2017-11-27T00:21:51.137Z,0.00
2017-11-27T00:22:51.076Z,0.00
2017-11-27T00:23:51.031Z,0.00
2017-11-27T00:24:50.984Z,0.00
2017-11-27T00:25:50.956Z,0.00
2017-11-27T00:26:50.893Z,0.00
2017-11-27T00:27:50.845Z,0.00
2017-11-27T00:28:50.796Z,0.00
2017-11-27T00:29:50.759Z,0.00
2017-11-27T00:30:50.711Z,0.00
2017-11-27T00:31:50.669Z,0.00
2017-11-27T00:32:50.619Z,0.00
2017-11-27T00:33:50.578Z,0.00
2017-11-27T00:34:50.521Z,0.00
2017-11-27T00:35:50.524Z,0.00
2017-11-27T00:36:50.429Z,0.00
2017-11-27T00:37:50.375Z,0.00
2017-11-27T00:38:50.336Z,0.00
2017-11-27T00:39:50.284Z,0.00
2017-11-27T00:40:50.323Z,0.00
2017-11-27T00:41:50.202Z,0.00
2017-11-27T00:42:50.156Z,0.00
2017-11-27T00:43:50.110Z,0.00
2017-11-27T00:44:50.064Z,0.00
2017-11-27T00:45:50.114Z,0.00
2017-11-27T00:46:49.979Z,0.00
2017-11-27T00:47:49.923Z,0.00
2017-11-27T00:48:49.885Z,0.00
2017-11-27T00:49:49.834Z,0.00
2017-11-27T00:50:49.804Z,0.00
2017-11-27T00:51:49.747Z,0.00
2017-11-27T00:52:49.743Z,0.00
2017-11-27T00:53:49.653Z,0.00
2017-11-27T00:54:49.636Z,0.00
2017-11-27T00:55:49.554Z,0.00
2017-11-27T00:56:49.526Z,0.00
2017-11-27T00:57:49.501Z,0.00
2017-11-27T00:58:49.426Z,0.00
2017-11-27T00:59:49.365Z,0.00
2017-11-27T01:00:49.342Z,0.00
2017-11-27T01:01:49.281Z,0.00
2017-11-27T01:02:49.234Z,0.00
2017-11-27T01:03:49.193Z,0.00
2017-11-27T01:04:49.142Z,0.00
2017-11-27T01:05:49.102Z,0.00
2017-11-27T01:06:49.092Z,0.00
2017-11-27T01:07:49.057Z,0.00
2017-11-27T01:08:48.959Z,0.00
2017-11-27T01:09:48.927Z,0.00
2017-11-27T01:10:48.873Z,0.00
2017-11-27T01:11:48.852Z,0.00
2017-11-27T01:12:48.810Z,0.00
2017-11-27T01:13:48.761Z,0.00
2017-11-27T01:14:48.683Z,0.00
2017-11-27T01:15:48.657Z,0.00
2017-11-27T01:16:48.596Z,0.00
2017-11-27T01:17:48.551Z,0.00
2017-11-27T01:18:48.518Z,0.00
2017-11-27T01:19:48.482Z,0.00
2017-11-27T01:20:48.430Z,0.00
2017-11-27T01:21:48.367Z,0.00
2017-11-27T01:22:48.339Z,0.00
2017-11-27T01:23:48.273Z,0.00
2017-11-27T01:24:48.260Z,0.00
2017-11-27T01:25:48.202Z,0.00
2017-11-27T01:26:48.132Z,0.00
2017-11-27T01:27:48.107Z,0.00
2017-11-27T01:28:48.056Z,0.00
2017-11-27T01:29:48.000Z,0.00
2017-11-27T01:30:47.953Z,0.00
2017-11-27T01:31:47.917Z,0.00
2017-11-27T01:32:47.862Z,0.00
2017-11-27T01:33:47.806Z,0.00
2017-11-27T01:34:47.761Z,0.00
2017-11-27T01:35:47.722Z,0.00
2017-11-27T01:36:47.713Z,0.00
2017-11-27T01:37:47.626Z,0.00
2017-11-27T01:38:47.594Z,0.00
2017-11-27T01:39:47.544Z,0.00
2017-11-27T01:40:47.517Z,0.00
2017-11-27T01:41:47.441Z,0.00
2017-11-27T01:42:47.412Z,0.00
2017-11-27T01:43:47.351Z,0.00
2017-11-27T01:44:47.314Z,0.00
2017-11-27T01:45:47.252Z,0.00
2017-11-27T01:46:47.216Z,0.00
2017-11-27T01:47:47.151Z,0.00
2017-11-27T01:48:47.122Z,0.00
2017-11-27T01:49:47.090Z,0.00
2017-11-27T01:50:47.061Z,0.00
2017-11-27T01:51:47.007Z,0.00
2017-11-27T01:52:46.945Z,0.00
2017-11-27T01:53:46.889Z,0.00
2017-11-27T01:54:46.861Z,0.00
2017-11-27T01:55:46.783Z,0.00
2017-11-27T01:56:46.790Z,0.00
2017-11-27T01:57:46.723Z,0.00
2017-11-27T01:58:46.674Z,0.00
2017-11-27T01:59:46.612Z,0.00
2017-11-27T02:00:46.582Z,0.00
2017-11-27T02:01:46.532Z,0.00
2017-11-27T02:02:46.454Z,0.00
2017-11-27T02:03:46.423Z,0.00
2017-11-27T02:04:46.382Z,0.00
2017-11-27T02:05:46.346Z,0.00
2017-11-27T02:06:46.279Z,0.00
2017-11-27T02:07:46.247Z,0.00
2017-11-27T02:08:46.236Z,0.00
2017-11-27T02:09:46.185Z,0.00
2017-11-27T02:10:47.273Z,0.00
2017-11-27T02:11:46.066Z,0.00
2017-11-27T02:12:46.005Z,0.00
2017-11-27T02:13:45.976Z,0.00
2017-11-27T02:14:45.938Z,0.00
2017-11-27T02:15:45.903Z,0.00
2017-11-27T02:16:45.838Z,0.00
2017-11-27T02:17:45.856Z,0.00
2017-11-27T02:18:45.719Z,0.00
2017-11-27T02:19:45.717Z,0.00
2017-11-27T02:20:45.641Z,0.00
2017-11-27T02:21:45.592Z,0.00
2017-11-27T02:22:45.552Z,0.00
2017-11-27T02:23:45.519Z,0.00
2017-11-27T02:24:45.444Z,0.00
2017-11-27T02:25:45.417Z,0.00
2017-11-27T02:26:45.368Z,0.00
2017-11-27T02:27:45.406Z,0.00
2017-11-27T02:28:45.350Z,0.00
2017-11-27T02:29:45.279Z,0.00
2017-11-27T02:30:45.177Z,0.00
2017-11-27T02:31:45.136Z,0.00
2017-11-27T02:32:45.098Z,0.00
2017-11-27T02:33:45.061Z,0.00
2017-11-27T02:34:44.984Z,0.00
2017-11-27T02:35:44.952Z,0.00
2017-11-27T02:36:45.059Z,0.00
2017-11-27T02:37:44.827Z,0.00
2017-11-27T02:38:44.807Z,0.00
2017-11-27T02:39:44.758Z,0.00
2017-11-27T02:40:44.702Z,0.00
2017-11-27T02:41:44.676Z,0.00
2017-11-27T02:42:44.679Z,0.00
2017-11-27T02:43:44.561Z,0.00
2017-11-27T02:44:44.552Z,0.00
2017-11-27T02:45:44.494Z,0.00
2017-11-27T02:46:44.524Z,0.00
2017-11-27T02:47:44.452Z,0.00
2017-11-27T02:48:44.337Z,0.00
2017-11-27T02:49:44.473Z,0.00
2017-11-27T02:50:44.265Z,0.00
2017-11-27T02:51:44.242Z,0.00
2017-11-27T02:52:44.429Z,0.00
2017-11-27T02:53:44.202Z,0.00
2017-11-27T02:54:44.219Z,0.00
2017-11-27T02:55:44.003Z,0.00
2017-11-27T02:56:44.034Z,0.00
2017-11-27T02:57:43.953Z,0.00
2017-11-27T02:58:43.853Z,0.00
2017-11-27T02:59:43.911Z,0.00
2017-11-27T03:00:43.844Z,0.00
2017-11-27T03:01:43.724Z,0.00
2017-11-27T03:02:43.806Z,0.00
2017-11-27T03:03:43.750Z,0.00
2017-11-27T03:04:43.624Z,0.00
2017-11-27T03:05:43.551Z,0.00
2017-11-27T03:06:43.657Z,0.00
2017-11-27T03:07:43.641Z,0.00
2017-11-27T03:08:43.534Z,0.00
2017-11-27T03:09:43.632Z,0.00
2017-11-27T03:10:43.372Z,0.00
2017-11-27T03:11:43.261Z,0.00
2017-11-27T03:12:43.257Z,0.00
2017-11-27T03:13:43.474Z,0.00
2017-11-27T03:14:43.229Z,0.00
2017-11-27T03:15:44.746Z,0.00
2017-11-27T03:16:43.133Z,0.00
2017-11-27T03:17:43.035Z,0.00
2017-11-27T03:18:43.076Z,0.00
2017-11-27T03:19:42.858Z,0.00
2017-11-27T03:20:48.864Z,0.00
2017-11-27T03:21:42.945Z,0.00
2017-11-27T03:22:42.784Z,0.00
2017-11-27T03:24:37.999Z,0.00
2017-11-27T03:24:43.056Z,0.00
2017-11-27T03:26:41.514Z,0.00
2017-11-27T03:27:40.125Z,0.00
2017-11-27T03:29:33.786Z,0.00
2017-11-27T03:30:33.446Z,0.00
2017-11-27T03:34:48.427Z,0.00
2017-11-27T03:36:21.171Z,0.00
2017-11-27T03:37:59.681Z,0.00
2017-11-27T03:39:00.056Z,0.00
2017-11-27T03:41:13.577Z,0.00
2017-11-27T03:42:14.264Z,0.00
2017-11-27T03:44:10.209Z,0.00
2017-11-27T03:45:12.221Z,0.00
2017-11-27T03:47:39.035Z,0.00
2017-11-27T03:48:38.913Z,0.00
2017-11-27T03:52:24.267Z,0.00
2017-11-27T03:55:14.819Z,0.00
2017-11-27T03:56:15.153Z,0.00
2017-11-27T03:58:10.912Z,0.00
2017-11-27T03:59:10.372Z,0.00
2017-11-27T04:06:33.636Z,0.00
2017-11-27T04:07:24.830Z,0.00
2017-11-27T04:15:46.821Z,0.00
2017-11-27T04:23:26.395Z,0.00
2017-11-27T07:33:00.917Z,3996.00
2017-11-27T07:37:53.309Z,4324.00
2017-11-27T07:42:03.014Z,4624.00
2017-11-27T08:06:31.675Z,10956.00
2017-11-27T08:09:45.313Z,10692.00
2017-11-27T08:11:02.992Z,10412.00
2017-11-27T08:11:45.566Z,10144.00
2017-11-27T08:14:56.037Z,10476.00
2017-11-27T08:16:03.476Z,11076.00
2017-11-27T08:19:59.381Z,12128.00
2017-11-27T08:20:59.425Z,12044.00
2017-11-27T08:23:00.774Z,12424.00
2017-11-27T08:24:01.236Z,12584.00
2017-11-27T08:26:08.697Z,12760.00
2017-11-27T08:27:08.656Z,13024.00
2017-11-27T08:29:02.248Z,13904.00
2017-11-27T08:30:02.239Z,14428.00
2017-11-27T08:31:55.883Z,14604.00
2017-11-27T08:32:55.754Z,14172.00
2017-11-27T08:34:50.337Z,13632.00
2017-11-27T08:35:50.402Z,13496.00
2017-11-27T08:37:44.175Z,12892.00
2017-11-27T08:38:44.074Z,12752.00
2017-11-27T08:40:36.683Z,12432.00
2017-11-27T08:41:36.597Z,12496.00
2017-11-27T08:43:31.297Z,12180.00
2017-11-27T08:44:31.214Z,12172.00
2017-11-27T08:46:26.655Z,11788.00
2017-11-27T08:47:27.135Z,11732.00
2017-11-27T08:49:19.819Z,11708.00
2017-11-27T08:50:19.637Z,11644.00
2017-11-27T08:52:12.837Z,11512.00
2017-11-27T08:53:12.744Z,11820.00
2017-11-27T08:55:05.849Z,12316.00
2017-11-27T08:56:05.823Z,12524.00
2017-11-27T08:57:58.922Z,12844.00
2017-11-27T08:58:59.604Z,12992.00
2017-11-27T09:00:51.939Z,12860.00
2017-11-27T09:01:51.882Z,12716.00
2017-11-27T09:03:45.543Z,12240.00
2017-11-27T09:04:45.441Z,12336.00
2017-11-27T09:06:38.090Z,13128.00
2017-11-27T09:07:38.019Z,13752.00
2017-11-27T09:09:31.628Z,14012.00
2017-11-27T09:10:31.589Z,14232.00
2017-11-27T09:12:24.662Z,14396.00
2017-11-27T09:13:24.632Z,14044.00
2017-11-27T09:15:18.473Z,14056.00
2017-11-27T09:16:17.714Z,15612.00
2017-11-27T09:18:10.840Z,15064.00
2017-11-27T09:19:10.724Z,15364.00
2017-11-27T09:21:03.895Z,14708.00
2017-11-27T09:22:03.788Z,13952.00
2017-11-27T09:23:57.514Z,12996.00
2017-11-27T09:24:57.348Z,12448.00
2017-11-27T09:26:50.014Z,12388.00
2017-11-27T09:27:49.942Z,12668.00
2017-11-27T09:29:43.098Z,13704.00
2017-11-27T09:30:42.953Z,14348.00
2017-11-27T09:32:36.063Z,14732.00
2017-11-27T09:33:36.071Z,14080.00
2017-11-27T09:35:29.684Z,17240.00
2017-11-27T09:36:29.089Z,14648.00
2017-11-27T09:38:22.719Z,21664.00
2017-11-27T09:39:22.134Z,30976.00
2017-11-27T09:41:15.818Z,23808.00
2017-11-27T09:42:15.735Z,27904.00
2017-11-27T09:44:09.329Z,29600.00
2017-11-27T09:45:09.291Z,33888.00
2017-11-27T09:47:02.924Z,32736.00
2017-11-27T09:48:02.842Z,32928.00
2017-11-27T09:49:55.498Z,20448.00
2017-11-27T09:50:55.403Z,33408.00
2017-11-27T09:52:48.551Z,38400.00
2017-11-27T09:53:48.447Z,32128.00
2017-11-27T09:55:41.600Z,41088.00
2017-11-27T09:56:41.543Z,41152.00
2017-11-27T09:58:35.179Z,42144.00
2017-11-27T09:59:34.587Z,43232.00
2017-11-27T10:01:27.664Z,37664.00
2017-11-27T10:02:27.621Z,41024.00
2017-11-27T10:04:20.799Z,42880.00
2017-11-27T10:05:20.721Z,48320.00
2017-11-27T10:07:13.805Z,45344.00
2017-11-27T10:08:13.744Z,41408.00
2017-11-27T10:10:06.901Z,28256.00
2017-11-27T10:11:07.287Z,25472.00
2017-11-27T10:12:59.904Z,37792.00
2017-11-27T10:14:00.363Z,38368.00
2017-11-27T10:15:53.008Z,28896.00
2017-11-27T10:16:52.903Z,25440.00
2017-11-27T10:18:46.568Z,22848.00
2017-11-27T10:19:46.507Z,22496.00
2017-11-27T10:21:41.175Z,22912.00
2017-11-27T10:22:41.582Z,21024.00
2017-11-27T10:24:34.176Z,19744.00
2017-11-27T10:25:34.108Z,19328.00
2017-11-27T10:27:27.222Z,19328.00
2017-11-27T10:28:27.197Z,21440.00
2017-11-27T10:30:20.419Z,22752.00
2017-11-27T10:31:20.249Z,22816.00
2017-11-27T10:33:13.482Z,23040.00
2017-11-27T10:34:13.406Z,31392.00
2017-11-27T10:36:07.017Z,27104.00
2017-11-27T10:37:07.013Z,24320.00
2017-11-27T10:39:00.521Z,24416.00
2017-11-27T10:40:00.134Z,26496.00
2017-11-27T10:41:53.269Z,22848.00
2017-11-27T10:42:53.143Z,21600.00
2017-11-27T10:44:46.891Z,19648.00
2017-11-27T10:45:46.284Z,19296.00
2017-11-27T10:47:39.355Z,19744.00
2017-11-27T10:48:39.796Z,20256.00
2017-11-27T10:50:33.047Z,20640.00
2017-11-27T10:51:32.901Z,20672.00
2017-11-27T10:53:27.537Z,20960.00
2017-11-27T10:54:27.491Z,20672.00
2017-11-27T10:56:20.624Z,19200.00
2017-11-27T10:57:20.977Z,17180.00
2017-11-27T10:59:13.730Z,14504.00
2017-11-27T11:00:13.550Z,13456.00
2017-11-27T11:02:06.745Z,12216.00
2017-11-27T11:03:07.126Z,11796.00
2017-11-27T11:04:59.767Z,11908.00
2017-11-27T11:05:59.655Z,11824.00
2017-11-27T11:07:54.397Z,11700.00
2017-11-27T11:08:54.304Z,11284.00
2017-11-27T11:10:47.312Z,12336.00
2017-11-27T11:11:47.278Z,12352.00
2017-11-27T11:13:45.651Z,12628.00
2017-11-27T11:14:45.545Z,13424.00
2017-11-27T11:16:38.662Z,13128.00
2017-11-27T11:17:38.576Z,13028.00
2017-11-27T11:19:33.256Z,13152.00
2017-11-27T11:20:33.706Z,13748.00
2017-11-27T11:22:26.804Z,13352.00
2017-11-27T11:23:26.232Z,12556.00
2017-11-27T11:25:19.882Z,12928.00
2017-11-27T11:26:19.248Z,13400.00
2017-11-27T11:28:12.414Z,14484.00
2017-11-27T11:29:12.272Z,14452.00
2017-11-27T11:31:08.004Z,13828.00
2017-11-27T11:32:07.477Z,13492.00
2017-11-27T11:34:02.065Z,13888.00
2017-11-27T11:35:02.502Z,14172.00
2017-11-27T11:36:55.112Z,15680.00
2017-11-27T11:37:55.066Z,15828.00
2017-11-27T11:39:48.208Z,15196.00
2017-11-27T11:40:48.211Z,14696.00
2017-11-27T11:42:41.814Z,14456.00
2017-11-27T11:43:41.197Z,14540.00
2017-11-27T11:45:34.308Z,14516.00
2017-11-27T11:46:34.260Z,14508.00
2017-11-27T11:48:27.404Z,14356.00
2017-11-27T11:49:27.806Z,14220.00
2017-11-27T11:51:20.442Z,14056.00
2017-11-27T11:52:20.351Z,13908.00
2017-11-27T11:54:34.158Z,14048.00
2017-11-27T11:55:33.071Z,13860.00
2017-11-27T11:57:26.737Z,13552.00
2017-11-27T11:58:26.523Z,13240.00
2017-11-27T12:00:19.337Z,13144.00
2017-11-27T12:01:19.229Z,13176.00
2017-11-27T12:03:12.769Z,12496.00
2017-11-27T12:04:12.253Z,11980.00
2017-11-27T12:06:05.431Z,11308.00
2017-11-27T12:07:05.817Z,10920.00
2017-11-27T12:08:58.932Z,11224.00
2017-11-27T12:09:58.884Z,11336.00
2017-11-27T12:11:52.578Z,11452.00
2017-11-27T12:12:52.058Z,11384.00
2017-11-27T12:14:45.543Z,11344.00
2017-11-27T12:15:46.009Z,11296.00
2017-11-27T12:17:38.626Z,10932.00
2017-11-27T12:18:38.588Z,11004.00
2017-11-27T12:20:31.682Z,10740.00
2017-11-27T12:21:31.576Z,10452.00
2017-11-27T12:23:28.270Z,10596.00
2017-11-27T12:24:27.614Z,10520.00
2017-11-27T12:26:21.264Z,9880.00
2017-11-27T12:27:20.675Z,9716.00
2017-11-27T12:29:13.995Z,9716.00
2017-11-27T12:30:14.224Z,9716.00
2017-11-27T12:32:07.876Z,9520.00
2017-11-27T12:33:07.309Z,9416.00
2017-11-27T12:35:04.142Z,9292.00
2017-11-27T12:36:03.593Z,9388.00
2017-11-27T12:37:58.256Z,9796.00
2017-11-27T12:38:58.138Z,9952.00
2017-11-27T12:40:51.255Z,9788.00
2017-11-27T12:41:51.728Z,9640.00
2017-11-27T12:43:44.354Z,9428.00
2017-11-27T12:44:44.216Z,9404.00
2017-11-27T12:46:37.440Z,9612.00
2017-11-27T12:47:37.303Z,9736.00
2017-11-27T12:49:31.475Z,9520.00
2017-11-27T12:50:30.831Z,9456.00
2017-11-27T12:52:25.623Z,9260.00
2017-11-27T12:53:27.302Z,9180.00
2017-11-27T12:55:19.418Z,8928.00
2017-11-27T12:56:19.353Z,8896.00
2017-11-27T12:58:14.347Z,8588.00
2017-11-27T12:59:13.758Z,8368.00
2017-11-27T13:01:07.423Z,8216.00
2017-11-27T13:02:06.788Z,8096.00
2017-11-27T13:03:59.916Z,7948.00
2017-11-27T13:05:00.328Z,7808.00
2017-11-27T13:06:53.486Z,7736.00
2017-11-27T13:07:53.420Z,7648.00
2017-11-27T13:09:47.128Z,7264.00
2017-11-27T13:10:48.042Z,6952.00
2017-11-27T13:12:39.626Z,6644.00
2017-11-27T13:13:39.561Z,6664.00
2017-11-27T13:15:32.672Z,6708.00
2017-11-27T13:16:32.607Z,6632.00
2017-11-27T13:18:25.727Z,6740.00
2017-11-27T13:19:25.618Z,6804.00
2017-11-27T13:21:18.800Z,6532.00
2017-11-27T13:22:19.235Z,6192.00
2017-11-27T13:24:12.369Z,6000.00
2017-11-27T13:25:11.810Z,6072.00
2017-11-27T13:27:05.079Z,6024.00
2017-11-27T13:28:05.296Z,5848.00
2017-11-27T13:29:58.443Z,5436.00
2017-11-27T13:30:57.868Z,5256.00
2017-11-27T13:32:54.051Z,5028.00
2017-11-27T13:33:53.937Z,4780.00
2017-11-27T13:35:47.507Z,4580.00
2017-11-27T13:36:46.923Z,4612.00
2017-11-27T13:38:40.132Z,4564.00
2017-11-27T13:39:40.008Z,4488.00
2017-11-27T13:41:34.154Z,4416.00
2017-11-27T13:42:33.609Z,4376.00
2017-11-27T13:44:43.423Z,4348.00
2017-11-27T13:45:43.295Z,4312.00
2017-11-27T13:47:37.054Z,4308.00
2017-11-27T13:48:36.989Z,4388.00
2017-11-27T13:50:32.654Z,4128.00
2017-11-27T13:51:32.556Z,3956.00
2017-11-27T13:53:30.656Z,3764.00
2017-11-27T13:54:31.112Z,3744.00
2017-11-27T13:56:39.515Z,3544.00
2017-11-27T13:57:40.434Z,3444.00
2017-11-27T13:59:33.064Z,3320.00
2017-11-27T14:00:32.408Z,3268.00
2017-11-27T14:02:26.166Z,3236.00
2017-11-27T14:03:26.072Z,3284.00
2017-11-27T14:05:19.673Z,3356.00
2017-11-27T14:06:19.638Z,3344.00
2017-11-27T14:08:13.252Z,3268.00
2017-11-27T14:09:13.221Z,3192.00
2017-11-27T14:10:13.632Z,3136.00
2017-11-27T14:11:13.114Z,3100.00
2017-11-27T14:12:13.054Z,3064.00
2017-11-27T14:13:12.980Z,3020.00
2017-11-27T14:14:12.970Z,2964.00
2017-11-27T14:15:12.849Z,2888.00
2017-11-27T14:16:13.391Z,2812.00
2017-11-27T14:17:12.827Z,2720.00
2017-11-27T14:18:12.697Z,2676.00
2017-11-27T14:19:13.178Z,2600.00
2017-11-27T14:20:12.660Z,2532.00
2017-11-27T14:21:13.115Z,2448.00
2017-11-27T14:22:12.624Z,2376.00
2017-11-27T14:23:13.022Z,2272.00
2017-11-27T14:24:12.977Z,2160.00
2017-11-27T14:25:12.478Z,2052.00
2017-11-27T14:26:12.403Z,1948.00
2017-11-27T14:27:12.340Z,1840.00
2017-11-27T14:28:12.286Z,1796.00
2017-11-27T14:29:12.792Z,1752.00
2017-11-27T14:30:12.258Z,1708.00
2017-11-27T14:31:12.688Z,1680.00
2017-11-27T14:32:12.138Z,1644.00
2017-11-27T14:33:12.102Z,1596.00
2017-11-27T14:34:12.049Z,1512.00
2017-11-27T14:35:12.050Z,1416.00
2017-11-27T14:36:12.000Z,1340.00
2017-11-27T14:37:11.915Z,1256.00
2017-11-27T14:38:11.897Z,1192.00
2017-11-27T14:39:12.060Z,1132.00
2017-11-27T14:40:12.301Z,1080.00
2017-11-27T14:41:11.764Z,1032.00
2017-11-27T14:42:11.687Z,972.00
2017-11-27T14:43:12.147Z,908.00
2017-11-27T14:44:11.581Z,852.00
2017-11-27T14:45:11.552Z,796.00
2017-11-27T14:46:12.059Z,744.00
2017-11-27T14:47:11.502Z,708.00
2017-11-27T14:48:11.933Z,664.00
2017-11-27T14:49:11.387Z,636.00
2017-11-27T14:50:11.304Z,612.00
2017-11-27T14:51:11.330Z,576.00
2017-11-27T14:52:11.188Z,552.00
2017-11-27T14:53:11.241Z,520.00
2017-11-27T14:54:11.165Z,488.00
2017-11-27T14:55:11.153Z,440.00
2017-11-27T14:56:11.058Z,412.00
2017-11-27T14:57:11.026Z,392.00
2017-11-27T14:58:10.895Z,364.00
2017-11-27T14:59:10.952Z,344.00
2017-11-27T15:00:10.922Z,324.00
2017-11-27T15:01:10.848Z,308.00
2017-11-27T15:02:10.813Z,288.00
2017-11-27T15:03:10.805Z,272.00
2017-11-27T15:04:10.834Z,252.00
2017-11-27T15:05:10.680Z,236.00
2017-11-27T15:06:10.637Z,220.00
2017-11-27T15:07:10.607Z,204.00
2017-11-27T15:08:10.459Z,188.00
2017-11-27T15:09:10.520Z,176.00
2017-11-27T15:10:10.469Z,164.00
2017-11-27T15:11:10.896Z,156.00
2017-11-27T15:12:10.295Z,148.00
2017-11-27T15:13:10.296Z,136.00
2017-11-27T15:14:10.297Z,124.00
2017-11-27T15:15:10.208Z,116.00
2017-11-27T15:16:10.189Z,108.00
2017-11-27T15:17:10.164Z,100.00
2017-11-27T15:18:10.083Z,92.00
2017-11-27T15:19:10.038Z,84.00
2017-11-27T15:20:10.043Z,72.00
2017-11-27T15:21:10.021Z,64.00
2017-11-27T15:22:09.911Z,60.00
2017-11-27T15:23:11.528Z,52.00
2017-11-27T15:24:10.296Z,44.00
2017-11-27T15:25:09.783Z,40.00
2017-11-27T15:26:09.709Z,32.00
2017-11-27T15:27:12.992Z,28.00
2017-11-27T15:28:10.134Z,24.00
2017-11-27T15:29:09.591Z,20.00
2017-11-27T15:30:10.069Z,20.00
2017-11-27T15:31:09.886Z,16.00
2017-11-27T15:32:09.976Z,16.00
2017-11-27T15:33:09.409Z,12.00
2017-11-27T15:34:09.411Z,12.00
2017-11-27T15:35:09.351Z,12.00
2017-11-27T15:36:09.312Z,8.00
2017-11-27T15:37:09.237Z,8.00
2017-11-27T15:38:09.148Z,4.00
2017-11-27T15:39:09.153Z,4.00
2017-11-27T15:40:09.534Z,4.00
2017-11-27T15:41:09.060Z,4.00
2017-11-27T15:42:09.031Z,4.00
2017-11-27T15:43:09.482Z,0.00
2017-11-27T15:44:08.946Z,0.00
2017-11-27T15:45:08.919Z,0.00
2017-11-27T15:46:08.825Z,0.00
2017-11-27T15:47:09.295Z,0.00
2017-11-27T15:48:08.755Z,0.00
2017-11-27T15:49:08.711Z,0.00
2017-11-27T15:50:09.153Z,0.00
2017-11-27T15:51:09.031Z,0.00
2017-11-27T15:52:08.629Z,0.00
2017-11-27T15:53:08.569Z,0.00
2017-11-27T15:54:08.785Z,0.00
2017-11-27T15:55:08.397Z,0.00
2017-11-27T15:56:08.426Z,0.00
2017-11-27T15:57:08.961Z,0.00
2017-11-27T15:58:08.324Z,0.00
2017-11-27T15:59:08.267Z,0.00
2017-11-27T16:00:08.198Z,0.00
2017-11-27T16:01:21.000Z,0.00
2017-11-27T16:03:05.497Z,0.00
2017-11-27T16:04:05.348Z,0.00
2017-11-27T16:06:01.561Z,0.00
2017-11-27T16:07:01.366Z,0.00
2017-11-27T16:08:57.084Z,0.00
2017-11-27T16:09:56.944Z,0.00
2017-11-27T16:11:49.638Z,0.00
2017-11-27T16:12:49.557Z,0.00
2017-11-27T16:14:42.635Z,0.00
2017-11-27T16:15:42.604Z,0.00
2017-11-27T16:17:35.697Z,0.00
2017-11-27T16:18:35.686Z,0.00
2017-11-27T16:20:28.918Z,0.00
2017-11-27T16:21:28.729Z,0.00
2017-11-27T16:23:22.304Z,0.00
2017-11-27T16:24:21.768Z,0.00
2017-11-27T16:26:14.910Z,0.00
2017-11-27T16:27:14.795Z,0.00
2017-11-27T16:29:07.897Z,0.00
2017-11-27T16:30:08.388Z,0.00
2017-11-27T16:32:00.940Z,0.00
2017-11-27T16:33:00.606Z,0.00
2017-11-27T16:34:54.101Z,0.00
2017-11-27T16:35:53.593Z,0.00
2017-11-27T16:37:47.138Z,0.00
2017-11-27T16:38:46.695Z,0.00
2017-11-27T16:40:40.306Z,0.00
2017-11-27T16:41:40.794Z,0.00
2017-11-27T16:43:33.191Z,0.00
2017-11-27T16:44:32.930Z,0.00
2017-11-27T16:46:26.246Z,0.00
2017-11-27T16:47:26.136Z,0.00
2017-11-27T16:49:19.316Z,0.00
2017-11-27T16:50:19.135Z,0.00
2017-11-27T16:52:12.337Z,0.00
2017-11-27T16:53:12.215Z,0.00
2017-11-27T16:55:05.528Z,0.00
2017-11-27T16:56:05.216Z,0.00
2017-11-27T16:57:58.388Z,0.00
2017-11-27T16:58:58.349Z,0.00
2017-11-27T17:00:51.471Z,0.00
2017-11-27T17:01:51.366Z,0.00
2017-11-27T17:03:44.582Z,0.00
2017-11-27T17:04:44.518Z,0.00
2017-11-27T17:06:37.716Z,0.00
2017-11-27T17:07:37.493Z,0.00
2017-11-27T17:09:31.084Z,0.00
2017-11-27T17:10:30.947Z,0.00
2017-11-27T17:12:25.844Z,0.00
2017-11-27T17:13:25.741Z,0.00
2017-11-27T17:15:18.815Z,0.00
2017-11-27T17:16:18.421Z,0.00
2017-11-27T17:18:11.915Z,0.00
2017-11-27T17:19:11.924Z,0.00
2017-11-27T17:21:05.008Z,0.00
2017-11-27T17:22:04.668Z,0.00
2017-11-27T17:23:58.092Z,0.00
2017-11-27T17:24:57.777Z,0.00
2017-11-27T17:26:51.100Z,0.00
2017-11-27T17:27:50.896Z,0.00
2017-11-27T17:29:44.155Z,0.00
2017-11-27T17:30:43.864Z,0.00
2017-11-27T17:32:37.119Z,0.00
2017-11-27T17:33:36.935Z,0.00
2017-11-27T17:35:30.349Z,0.00
2017-11-27T17:36:30.103Z,0.00
2017-11-27T17:38:23.415Z,0.00
2017-11-27T17:39:23.242Z,0.00
2017-11-27T17:41:16.921Z,0.00
2017-11-27T17:42:16.181Z,0.00
2017-11-27T17:44:09.446Z,0.00
2017-11-27T17:45:09.358Z,0.00
2017-11-27T17:47:03.045Z,0.00
2017-11-27T17:48:02.568Z,0.00
2017-11-27T17:49:56.088Z,0.00
2017-11-27T17:50:55.947Z,0.00
2017-11-27T17:52:49.182Z,0.00
2017-11-27T17:53:49.071Z,0.00
2017-11-27T17:55:42.158Z,0.00
2017-11-27T17:56:42.017Z,0.00
2017-11-27T17:58:35.651Z,0.00
2017-11-27T17:59:35.047Z,0.00
2017-11-27T18:01:28.843Z,0.00
2017-11-27T18:02:28.237Z,0.00
2017-11-27T18:04:21.447Z,0.00
2017-11-27T18:05:21.419Z,0.00
2017-11-27T18:07:14.899Z,0.00
2017-11-27T18:08:14.185Z,0.00
2017-11-27T18:10:07.678Z,0.00
2017-11-27T18:11:07.310Z,0.00
2017-11-27T18:13:00.792Z,0.00
2017-11-27T18:14:00.230Z,0.00
2017-11-27T18:15:53.649Z,0.00
2017-11-27T18:16:53.360Z,0.00
2017-11-27T18:18:49.200Z,0.00
2017-11-27T18:19:46.562Z,0.00
2017-11-27T18:21:39.770Z,0.00
2017-11-27T18:22:39.718Z,0.00
2017-11-27T18:24:33.436Z,0.00
2017-11-27T18:25:33.423Z,0.00
2017-11-27T18:27:26.523Z,0.00
2017-11-27T18:28:26.211Z,0.00
2017-11-27T18:30:19.439Z,0.00
2017-11-27T18:31:19.364Z,0.00
2017-11-27T18:33:13.042Z,0.00
2017-11-27T18:34:12.939Z,0.00
2017-11-27T18:36:05.668Z,0.00
2017-11-27T18:37:05.433Z,0.00
2017-11-27T18:38:58.758Z,0.00
2017-11-27T18:39:58.635Z,0.00
2017-11-27T18:41:52.174Z,0.00
2017-11-27T18:42:51.395Z,0.00
2017-11-27T18:44:44.793Z,0.00
2017-11-27T18:45:44.452Z,0.00
2017-11-27T18:47:38.307Z,0.00
2017-11-27T18:48:37.778Z,0.00
2017-11-27T18:50:31.473Z,0.00
2017-11-27T18:51:31.278Z,0.00
2017-11-27T18:53:24.876Z,0.00
2017-11-27T18:54:24.381Z,0.00
2017-11-27T18:56:17.513Z,0.00
2017-11-27T18:57:17.475Z,0.00
2017-11-27T18:59:11.070Z,0.00
2017-11-27T19:00:10.521Z,0.00
2017-11-27T19:02:05.168Z,0.00
2017-11-27T19:03:05.086Z,0.00
2017-11-27T19:04:58.191Z,0.00
2017-11-27T19:05:58.149Z,0.00
2017-11-27T19:07:51.830Z,0.00
2017-11-27T19:08:51.233Z,0.00
2017-11-27T19:10:44.791Z,0.00
2017-11-27T19:11:44.208Z,0.00
2017-11-27T19:13:37.441Z,0.00
2017-11-27T19:14:37.321Z,0.00
2017-11-27T19:16:30.981Z,0.00
2017-11-27T19:17:30.806Z,0.00
2017-11-27T19:19:24.048Z,0.00
2017-11-27T19:20:23.933Z,0.00
2017-11-27T19:22:16.603Z,0.00
2017-11-27T19:23:16.508Z,0.00
2017-11-27T19:25:10.182Z,0.00
2017-11-27T19:26:10.111Z,0.00
2017-11-27T19:28:22.919Z,0.00
2017-11-27T19:29:22.021Z,0.00
2017-11-27T19:31:16.798Z,0.00
2017-11-27T19:32:17.071Z,0.00
2017-11-27T19:34:09.688Z,0.00
2017-11-27T19:35:09.629Z,0.00
2017-11-27T19:37:03.337Z,0.00
2017-11-27T19:38:02.673Z,0.00
2017-11-27T19:39:55.799Z,0.00
2017-11-27T19:40:55.681Z,0.00
2017-11-27T19:42:49.378Z,0.00
2017-11-27T19:43:48.771Z,0.00
2017-11-27T19:45:42.039Z,0.00
2017-11-27T19:46:42.340Z,0.00
2017-11-27T19:48:35.032Z,0.00
2017-11-27T19:49:34.823Z,0.00
2017-11-27T19:51:29.020Z,0.00
2017-11-27T19:52:28.246Z,0.00
2017-11-27T19:54:21.252Z,0.00
2017-11-27T19:55:21.143Z,0.00
2017-11-27T19:57:14.209Z,0.00
2017-11-27T19:58:14.154Z,0.00
2017-11-27T20:00:07.382Z,0.00
2017-11-27T20:01:07.246Z,0.00
2017-11-27T20:03:00.868Z,0.00
2017-11-27T20:04:00.812Z,0.00
2017-11-27T20:05:54.484Z,0.00
2017-11-27T20:06:53.853Z,0.00
2017-11-27T20:08:47.070Z,0.00